Date,TemperatureHighF,TemperatureAvgF,TemperatureLowF,DewpointHighF,DewpointAvgF,DewpointLowF,HumidityHigh,HumidityAvg,HumidityLow,PressureMaxIn,PressureMinIn,WindSpeedMaxMPH,WindSpeedAvgMPH,GustSpeedMaxMPH,PrecipitationSumIn
2014-1-1,32.9,29.0,24.1,22.0,16.2,8.2,67,58,48,30.43,30.27,7,4,16,0.00
2014-1-2,32.0,26.3,17.7,25.8,22.6,15.7,93,86,66,30.27,29.67,14,10,30,0.00
2014-1-3,18.9,13.4,9.7,15.7,5.7,-3.3,92,73,52,30.49,29.63,16,9,32,0.00
2014-1-4,27.7,19.3,8.6,18.8,7.4,-0.5,79,61,40,30.55,30.32,8,3,14,0.00
2014-1-5,49.9,32.3,24.3,49.5,29.7,18.8,99,90,73,30.33,29.78,10,2,20,0.11
2014-1-6,52.4,42.8,18.9,52.3,37.2,1.4,100,82,49,29.78,29.42,14,8,26,0.29
2014-1-7,18.2,8.2,4.1,1.8,-8.3,-13.9,54,46,38,30.41,29.74,13,9,31,0.00
2014-1-8,22.7,15.4,8.3,6.2,1.0,-5.1,62,53,45,30.58,30.41,8,5,18,0.00
2014-1-9,34.2,26.7,21.9,17.8,12.8,5.2,69,56,40,30.67,30.51,6,2,13,0.00
2014-1-10,36.0,32.7,26.5,35.2,28.7,17.7,98,86,67,30.60,30.22,4,1,8,0.16
2014-1-11,56.2,49.3,35.2,56.0,49.0,34.7,100,99,94,30.22,29.33,13,6,25,0.53
2014-1-12,53.9,44.6,38.4,52.2,33.2,28.4,94,65,51,30.09,29.41,10,6,24,0.02
2014-1-13,48.3,42.0,33.8,42.1,35.8,28.8,89,79,69,30.17,29.91,10,4,18,0.00
2014-1-14,47.7,45.4,42.9,47.2,43.5,39.6,98,93,85,29.91,29.67,6,3,13,0.41
2014-1-15,44.2,39.5,33.3,42.6,38.5,32.4,99,96,91,30.02,29.85,5,2,10,0.01
2014-1-16,41.9,39.2,36.7,40.7,33.4,29.9,99,80,71,29.96,29.85,8,3,17,0.00
2014-1-17,45.0,38.4,30.6,35.7,30.5,23.6,84,73,62,30.01,29.89,8,2,15,0.00
2014-1-18,40.6,36.1,28.6,36.1,29.9,20.1,96,78,66,29.89,29.68,9,4,21,0.14
2014-1-19,37.8,30.7,24.2,26.4,20.6,15.4,73,66,56,29.85,29.67,12,6,24,0.00
2014-1-20,47.4,39.8,32.0,31.3,26.9,18.6,72,60,47,29.90,29.59,11,6,26,0.00
2014-1-21,32.0,19.7,11.4,19.1,12.5,7.1,90,75,48,30.01,29.83,14,8,26,0.00
2014-1-22,17.9,11.8,6.2,7.5,0.4,-3.5,82,60,47,30.01,29.79,13,8,24,0.00
2014-1-23,20.8,14.2,8.3,7.9,2.6,-2.2,69,60,48,30.31,30.00,8,4,21,0.00
2014-1-24,20.2,15.2,10.2,6.5,1.6,-1.4,63,54,40,30.41,30.11,11,6,25,0.00
2014-1-25,28.3,23.6,18.7,23.2,14.2,5.4,91,68,53,30.11,29.46,10,7,26,0.00
2014-1-26,31.7,22.4,17.0,22.7,9.4,0.0,82,58,42,29.92,29.48,11,6,23,0.00
2014-1-27,43.8,33.0,20.8,30.9,19.4,-1.0,83,59,32,30.10,29.63,11,6,23,0.00
2014-1-28,20.7,17.1,12.7,5.2,-3.0,-8.3,57,41,31,30.39,30.09,11,4,20,0.00
2014-1-29,23.2,18.2,14.4,12.3,3.8,-1.1,87,55,35,30.31,30.11,9,5,19,0.00
2014-1-30,30.0,22.6,16.1,18.5,8.1,0.7,73,54,38,30.48,30.22,6,3,11,0.00
2014-1-31,40.6,33.0,25.2,21.2,16.4,11.0,64,51,37,30.25,30.11,9,3,18,0.00
2014-2-1,43.6,38.3,34.0,35.3,25.8,20.9,92,62,43,30.34,30.03,6,2,11,0.00
2014-2-2,56.9,44.7,33.7,41.3,37.3,31.8,95,77,51,30.09,29.92,7,2,15,0.00
2014-2-3,43.0,32.3,26.6,37.2,30.7,23.8,98,94,79,30.32,30.07,9,5,17,0.11
2014-2-4,37.4,29.2,22.8,26.6,23.9,19.9,90,81,63,30.48,30.26,6,3,13,0.10
2014-2-5,33.5,31.7,29.1,32.7,30.4,25.8,97,95,80,30.27,29.65,9,4,18,0.16
2014-2-6,31.5,27.1,22.4,28.5,20.2,16.4,89,75,57,30.30,29.97,10,4,18,0.04
2014-2-7,32.6,28.3,24.0,20.0,17.3,14.0,75,63,53,30.35,30.23,9,5,19,0.00
2014-2-8,29.5,25.8,21.7,15.3,9.5,3.2,60,50,37,30.36,30.16,7,3,14,0.00
2014-2-9,31.8,25.9,20.9,24.8,14.7,6.7,92,63,48,30.21,30.01,7,3,14,0.00
2014-2-10,29.5,24.9,21.3,22.3,13.4,9.4,86,62,48,30.29,30.01,9,6,19,0.00
2014-2-11,26.6,21.4,17.0,11.3,8.0,6.1,66,56,46,30.49,30.29,9,5,18,0.00
2014-2-12,25.4,19.5,13.3,18.1,8.6,2.8,79,63,44,30.58,30.30,10,5,20,0.00
2014-2-13,34.1,30.6,23.3,33.8,29.9,18.1,99,97,79,30.30,29.00,15,9,32,0.94
2014-2-14,40.1,35.4,29.4,32.9,29.0,25.6,99,79,59,29.79,29.01,12,7,28,0.06
2014-2-15,36.8,33.3,26.6,30.7,28.0,17.7,97,81,64,29.80,29.57,14,6,24,0.00
2014-2-16,29.8,25.1,20.9,17.8,13.6,10.2,70,62,50,30.12,29.74,12,6,24,0.00
2014-2-17,32.6,25.0,18.0,16.6,8.5,3.4,69,51,31,30.39,30.12,11,4,23,0.00
2014-2-18,40.4,32.8,27.2,35.2,25.3,9.6,95,75,46,30.34,29.96,10,3,25,0.14
2014-2-19,46.5,38.6,29.9,43.6,34.5,24.5,97,85,71,30.12,29.70,7,2,17,0.31
2014-2-20,51.2,41.9,36.7,38.0,31.4,27.7,96,67,42,30.27,29.99,7,3,15,0.04
2014-2-21,48.4,39.7,34.7,48.4,38.5,34.2,100,96,84,30.04,29.66,9,3,16,0.12
2014-2-22,55.5,46.3,36.7,36.5,29.4,22.4,94,56,28,30.07,29.93,13,5,28,0.00
2014-2-23,55.8,47.8,38.0,35.3,31.5,28.5,82,55,38,30.03,29.85,9,2,17,0.00
2014-2-24,42.4,35.6,27.0,34.3,18.6,8.5,78,51,33,30.09,29.81,11,6,27,0.00
2014-2-25,32.7,28.2,24.4,17.1,12.3,8.4,59,51,42,30.10,29.94,9,5,20,0.00
2014-2-26,32.4,26.4,20.5,24.4,11.1,-3.9,89,54,32,29.99,29.82,10,4,20,0.00
2014-2-27,32.4,24.8,13.7,19.4,5.3,-14.5,64,43,26,30.11,29.63,13,7,27,0.00
2014-2-28,25.7,17.5,9.6,4.6,-3.4,-13.0,50,39,29,30.45,30.12,10,4,24,0.00
2014-3-1,39.8,29.6,18.5,29.9,15.9,2.4,81,57,38,30.44,30.17,6,3,15,0.00
2014-3-2,41.2,37.2,33.1,28.7,23.1,18.7,72,57,52,30.17,29.99,6,3,14,0.00
2014-3-3,33.1,22.4,18.4,20.4,8.6,-0.8,87,56,40,30.34,30.01,9,6,19,0.00
2014-3-4,30.2,22.0,12.7,15.7,6.7,-1.2,61,52,37,30.44,30.26,10,4,21,0.00
2014-3-5,37.9,31.0,25.4,15.2,12.6,7.4,59,47,33,30.45,30.22,11,4,24,0.00
2014-3-6,29.7,23.3,15.6,14.3,8.3,0.9,64,53,37,30.65,30.45,11,6,20,0.00
2014-3-7,35.9,30.9,26.0,31.6,23.9,13.2,87,75,58,30.49,29.92,10,6,19,0.00
2014-3-8,58.4,45.7,34.8,33.3,31.5,29.4,87,60,37,29.92,29.77,9,4,19,0.00
2014-3-9,44.7,40.8,36.3,30.2,20.0,10.7,67,45,29,30.03,29.89,9,6,19,0.00
2014-3-10,51.4,42.2,36.8,36.7,27.0,15.9,81,56,38,29.95,29.62,8,4,15,0.00
2014-3-11,66.4,53.9,41.6,40.1,36.9,33.0,79,54,33,29.70,29.57,7,3,15,0.00
2014-3-12,55.6,47.9,36.6,50.2,42.4,31.3,98,82,61,29.68,29.02,13,4,29,0.31
2014-3-13,36.4,24.1,18.0,31.4,6.3,-1.6,82,48,30,30.10,29.16,17,11,35,0.00
2014-3-14,43.8,32.2,21.5,31.7,15.0,-0.3,78,50,31,30.24,29.92,10,5,21,0.00
2014-3-15,58.2,49.8,38.7,35.1,29.9,24.5,83,49,28,30.00,29.76,11,6,28,0.00
2014-3-16,44.9,35.1,30.9,26.9,12.1,5.8,54,39,28,30.21,30.00,12,7,20,0.00
2014-3-17,32.6,28.3,23.6,11.8,7.2,-1.9,50,40,29,30.15,30.04,12,6,21,0.00
2014-3-18,41.6,33.4,27.7,27.5,16.5,5.9,78,52,27,30.31,30.13,10,5,19,0.00
2014-3-19,45.4,38.0,30.8,44.3,32.9,25.5,97,82,69,30.34,29.83,12,6,30,0.68
2014-3-20,53.9,46.2,39.7,44.3,34.2,24.5,98,67,37,29.91,29.74,11,6,28,0.05
2014-3-21,52.7,44.4,38.4,25.1,22.3,20.0,53,42,29,30.07,29.90,9,6,22,0.00
2014-3-22,63.9,50.0,38.2,41.7,31.5,22.1,78,51,27,30.07,29.76,11,6,26,0.00
2014-3-23,44.2,38.8,28.4,27.9,19.3,6.0,59,46,29,30.12,29.98,11,6,21,0.00
2014-3-24,35.1,27.9,21.3,8.1,6.5,4.2,53,40,28,30.26,30.11,11,6,21,0.00
2014-3-25,37.9,32.8,25.3,22.8,14.7,7.2,68,48,33,30.18,29.86,9,4,19,0.00
2014-3-26,36.7,32.2,24.7,24.2,11.6,2.3,74,43,28,30.23,29.74,16,10,31,0.00
2014-3-27,40.8,31.7,22.4,27.4,14.1,4.7,63,49,26,30.43,30.23,10,6,23,0.00
2014-3-28,60.2,46.2,36.2,51.9,40.1,22.4,90,79,56,30.29,29.98,9,4,18,0.03
2014-3-29,55.2,47.2,42.7,50.5,44.4,41.3,98,90,80,30.20,29.68,10,5,19,1.78
2014-3-30,47.4,44.1,39.2,46.2,43.1,36.8,100,96,90,29.68,29.47,15,8,31,0.76
2014-3-31,55.9,43.4,34.9,37.8,34.7,28.6,94,73,48,30.09,29.67,14,9,31,0.01
2014-4-1,59.6,46.0,38.9,38.0,31.6,28.3,72,58,38,30.14,29.99,11,5,23,0.00
2014-4-2,53.3,44.7,39.8,44.9,40.5,34.1,94,85,72,30.17,30.06,5,2,9,0.01
2014-4-3,63.9,51.3,42.5,42.8,35.5,25.1,95,59,25,30.14,30.01,7,3,13,0.02
2014-4-4,45.3,41.8,38.8,41.3,38.3,35.2,97,87,75,30.09,29.75,9,5,21,0.15
2014-4-5,55.2,46.4,38.5,42.9,34.3,24.9,98,67,39,30.08,29.72,11,6,25,0.05
2014-4-6,60.6,44.9,35.9,34.6,25.8,19.7,73,50,22,30.23,30.08,7,4,16,0.00
2014-4-7,50.9,45.6,40.3,48.4,38.2,26.2,99,76,40,30.23,29.71,9,4,18,0.62
2014-4-8,65.3,54.6,47.7,57.5,45.8,35.6,100,76,45,29.70,29.41,11,5,26,0.31
2014-4-9,61.9,52.5,44.5,37.7,31.2,15.8,72,47,26,30.04,29.62,13,6,27,0.00
2014-4-10,55.1,49.3,38.4,40.6,28.1,15.5,64,45,28,30.23,30.04,13,6,24,0.00
2014-4-11,75.3,59.4,47.7,50.2,44.4,37.6,84,59,39,30.05,29.94,9,4,17,0.00
2014-4-12,71.4,59.3,50.6,52.2,43.1,32.3,87,58,24,30.24,30.00,9,4,17,0.00
2014-4-13,71.9,58.1,48.8,55.7,50.1,41.1,91,75,56,30.21,29.99,11,5,21,0.00
2014-4-14,70.2,59.0,52.0,56.8,53.1,49.8,95,81,62,30.04,29.87,14,6,26,0.00
2014-4-15,58.1,52.2,33.9,57.7,51.5,33.1,100,98,94,29.91,29.53,16,9,34,0.39
2014-4-16,48.5,39.1,30.9,33.0,22.7,17.3,97,55,33,30.58,29.91,14,8,26,0.09
2014-4-17,45.1,40.3,35.8,33.3,28.1,20.9,77,62,48,30.74,30.58,9,5,21,0.00
2014-4-18,47.7,40.1,34.9,36.5,32.2,28.1,85,74,60,30.62,30.28,8,4,14,0.00
2014-4-19,67.7,53.6,40.3,40.2,32.6,24.2,86,51,22,30.35,30.23,9,4,19,0.00
2014-4-20,56.4,49.7,43.5,37.0,30.6,27.1,66,48,35,30.50,30.34,10,5,17,0.00
2014-4-21,62.4,50.5,39.7,43.6,35.1,26.8,82,58,29,30.34,29.89,8,3,14,0.00
2014-4-22,65.3,57.5,48.1,55.3,49.5,43.5,87,75,61,29.89,29.51,8,4,17,0.00
2014-4-23,61.7,53.9,44.8,51.7,39.6,31.6,74,59,41,29.83,29.49,15,8,36,0.00
2014-4-24,63.2,52.0,42.4,33.0,20.3,12.2,64,33,14,30.03,29.83,12,8,27,0.00
2014-4-25,60.4,51.3,45.4,43.3,28.2,19.1,79,43,27,30.06,29.78,11,5,18,0.00
2014-4-26,66.3,51.9,44.8,48.5,45.1,41.3,97,80,42,29.89,29.71,9,4,17,0.75
2014-4-27,60.4,53.2,46.7,46.8,37.1,34.8,92,55,40,30.12,29.88,10,6,22,0.00
2014-4-28,65.3,54.1,46.0,43.8,37.4,29.0,73,55,27,30.14,30.01,9,4,17,0.00
2014-4-29,50.7,46.5,42.4,42.9,40.0,38.1,89,78,67,30.43,30.13,12,7,28,0.06
2014-4-30,53.1,45.4,40.9,52.8,44.0,37.8,99,95,84,30.41,29.98,11,7,26,5.46
2014-5-1,76.4,61.7,50.1,64.5,56.8,49.8,100,86,50,29.99,29.68,8,4,15,0.45
2014-5-2,69.2,62.5,56.0,56.0,44.0,36.5,84,53,34,29.85,29.70,9,4,21,0.00
2014-5-3,67.8,60.2,53.8,52.0,43.4,38.2,84,55,38,29.88,29.75,9,4,19,0.02
2014-5-4,64.4,58.3,54.6,50.4,40.4,26.7,82,54,28,29.79,29.65,12,6,30,0.00
2014-5-5,69.9,59.5,49.9,39.5,33.5,24.5,66,40,21,29.91,29.79,12,6,24,0.00
2014-5-6,70.9,61.0,53.1,39.6,33.3,27.2,58,37,24,30.07,29.88,11,4,20,0.00
2014-5-7,68.4,58.6,51.5,44.4,34.4,27.9,61,41,25,30.25,30.07,10,4,19,0.00
2014-5-8,57.4,54.5,52.0,54.6,52.0,43.4,97,92,60,30.20,30.10,6,2,12,0.42
2014-5-9,64.2,58.5,53.4,61.6,57.5,52.6,100,97,90,30.20,30.01,7,2,14,0.13
2014-5-10,82.3,65.8,54.2,66.9,60.8,54.2,100,86,55,30.01,29.83,10,4,21,0.17
2014-5-11,83.3,71.7,61.3,62.6,48.0,37.5,95,48,21,30.07,29.87,7,3,18,0.14
2014-5-12,83.0,71.9,61.9,62.3,56.4,49.3,76,59,40,30.12,30.02,8,3,14,0.00
2014-5-13,71.0,63.6,51.4,63.5,50.8,42.0,92,65,39,30.30,30.00,9,4,18,0.00
2014-5-14,66.8,57.6,50.6,59.6,52.2,45.3,96,83,69,30.32,30.24,6,3,11,0.00
2014-5-15,70.6,62.6,56.7,66.3,61.5,55.5,100,96,86,30.25,30.08,9,5,20,0.12
2014-5-16,67.4,64.4,61.4,65.9,63.6,60.8,100,97,94,30.09,29.79,14,9,29,1.78
2014-5-17,70.2,62.4,53.8,61.7,47.4,38.8,99,61,36,30.10,29.83,9,4,19,0.00
2014-5-18,68.0,60.7,53.4,45.0,39.2,34.1,67,46,34,30.20,30.10,8,4,16,0.00
2014-5-19,73.3,62.3,51.0,44.1,36.8,31.4,53,40,24,30.22,30.06,9,3,24,0.00
2014-5-20,80.5,69.2,56.8,45.5,40.1,33.1,60,38,20,30.13,29.96,7,3,16,0.00
2014-5-21,75.6,69.3,62.2,56.2,50.7,42.8,80,52,36,29.99,29.89,6,3,15,0.00
2014-5-22,63.3,60.2,58.1,60.6,57.9,56.2,97,92,81,29.89,29.81,6,2,13,0.41
2014-5-23,69.8,61.4,56.9,60.8,57.6,55.9,98,88,66,29.90,29.84,6,3,13,0.51
2014-5-24,67.6,60.3,56.6,57.6,55.8,53.7,98,86,63,30.09,29.92,7,3,13,0.43
2014-5-25,83.1,67.8,54.3,60.2,54.4,43.4,98,67,26,30.11,30.02,7,2,17,0.01
2014-5-26,87.0,76.4,63.9,57.9,53.1,49.9,80,46,30,30.05,29.88,10,4,19,0.00
2014-5-27,86.6,79.0,70.8,67.4,60.3,56.1,68,53,38,29.89,29.74,9,4,20,0.00
2014-5-28,75.1,57.3,53.3,63.4,52.8,46.6,92,85,66,30.18,29.80,11,6,20,0.00
2014-5-29,63.1,55.7,51.0,50.1,46.3,42.5,81,71,60,30.24,30.15,8,5,16,0.00
2014-5-30,75.8,64.7,54.9,58.0,51.2,42.5,82,63,47,30.17,29.98,7,2,18,0.00
2014-5-31,70.2,63.3,57.3,56.0,50.9,44.6,82,65,47,30.30,30.06,9,5,22,0.02
2014-6-1,77.2,66.0,53.4,49.5,43.2,34.8,78,47,24,30.36,30.26,7,3,14,0.00
2014-6-2,77.2,69.4,59.7,60.2,51.5,41.2,73,54,41,30.27,30.01,8,4,17,0.00
2014-6-3,83.4,74.0,65.6,70.2,62.0,56.8,92,67,53,30.03,29.81,9,4,19,0.12
2014-6-4,82.4,69.9,61.2,65.3,62.9,59.4,95,80,51,29.86,29.73,9,3,20,0.00
2014-6-5,78.4,67.8,60.3,65.5,59.9,50.8,99,79,43,29.79,29.64,10,4,19,0.67
2014-6-6,78.9,69.5,61.7,54.0,52.1,49.3,66,55,41,29.94,29.79,6,3,14,0.00
2014-6-7,85.2,73.1,61.2,58.5,54.9,52.9,76,54,34,30.00,29.91,5,2,14,0.00
2014-6-8,86.1,75.6,64.0,62.1,58.1,51.1,81,56,33,29.95,29.87,9,3,17,0.00
2014-6-9,72.2,66.2,62.4,66.2,62.4,54.8,98,89,55,29.96,29.90,5,2,11,1.56
2014-6-10,77.4,70.3,63.9,70.3,66.9,63.1,99,89,77,29.98,29.92,6,2,12,0.00
2014-6-11,70.5,65.7,61.3,67.4,60.9,57.7,97,85,70,30.12,29.98,9,4,18,0.03
2014-6-12,74.0,65.9,59.9,70.0,63.8,57.8,98,93,85,30.09,29.92,7,4,16,0.04
2014-6-13,81.2,69.2,63.8,72.5,67.5,63.8,100,95,72,29.92,29.72,7,3,13,1.69
2014-6-14,77.0,69.6,61.2,68.1,59.0,49.3,99,72,45,30.03,29.77,7,3,17,0.00
2014-6-15,83.4,71.4,59.8,58.5,54.9,51.6,79,58,38,30.11,30.03,6,3,15,0.00
2014-6-16,80.2,71.4,62.8,63.9,58.9,53.3,88,66,43,30.16,30.06,8,3,15,0.00
2014-6-17,89.4,78.2,68.0,72.4,68.1,63.5,90,72,50,30.07,29.88,7,3,14,0.00
2014-6-18,92.5,85.4,79.1,71.8,65.9,58.8,77,54,36,29.96,29.80,7,4,18,0.00
2014-6-19,80.1,74.7,68.4,68.0,65.8,62.6,85,74,59,30.01,29.93,8,3,16,0.01
2014-6-20,83.5,74.8,66.4,66.5,49.3,41.1,84,43,27,30.01,29.88,7,4,19,0.00
2014-6-21,76.3,69.3,63.3,59.0,51.5,47.2,81,54,40,29.98,29.89,7,4,16,0.00
2014-6-22,78.8,69.8,62.3,59.3,56.9,52.8,85,65,44,30.03,29.91,7,3,13,0.00
2014-6-23,83.5,72.5,61.7,63.6,58.4,52.6,86,63,41,30.15,30.03,9,4,19,0.01
2014-6-24,80.0,72.4,66.1,67.4,62.8,58.6,82,72,59,30.16,30.02,11,5,24,0.00
2014-6-25,82.7,74.5,69.6,73.9,69.9,61.4,97,86,74,30.03,29.83,10,5,23,0.00
2014-6-26,89.2,79.8,70.4,71.7,69.3,64.6,97,74,52,29.96,29.80,7,2,17,0.10
2014-6-27,82.0,73.5,68.1,66.9,62.3,55.9,89,70,45,30.22,29.97,8,4,14,0.00
2014-6-28,86.7,75.1,64.7,64.2,58.9,46.8,81,60,26,30.27,30.21,8,3,15,0.00
2014-6-29,79.4,73.4,65.4,65.5,60.3,54.9,80,64,49,30.26,30.12,9,4,17,0.00
2014-6-30,83.5,74.8,67.8,69.7,66.0,59.6,91,75,52,30.13,29.95,9,4,16,0.00
2014-7-1,87.0,78.6,71.2,74.4,70.1,65.1,91,75,63,29.97,29.82,10,5,20,0.00
2014-7-2,87.0,78.9,70.7,75.6,72.0,67.7,95,80,67,29.99,29.83,11,4,26,0.83
2014-7-3,87.2,79.0,72.2,76.1,73.5,70.7,98,84,68,29.96,29.88,9,3,18,0.03
2014-7-4,75.5,70.5,65.2,70.5,64.7,54.6,97,83,60,30.01,29.89,10,4,25,0.14
2014-7-5,85.3,74.1,63.5,56.3,52.7,50.4,66,49,30,30.15,30.01,7,4,19,0.00
2014-7-6,86.8,77.6,67.0,64.1,57.0,54.1,68,51,35,30.10,29.92,10,4,23,0.00
2014-7-7,92.5,82.1,72.5,69.0,65.8,62.9,76,59,40,29.93,29.73,13,7,29,0.00
2014-7-8,92.8,81.7,73.6,72.8,69.8,65.2,86,68,46,29.86,29.66,19,5,34,0.04
2014-7-9,87.5,78.9,72.0,72.9,67.4,59.0,85,69,41,29.95,29.77,9,4,17,0.00
2014-7-10,85.6,76.3,71.0,66.7,63.7,61.3,80,66,47,30.13,29.95,8,3,16,0.00
2014-7-11,85.8,75.9,69.2,67.1,62.2,55.1,89,64,39,30.22,30.11,9,4,16,0.00
2014-7-12,84.3,75.1,68.2,68.9,66.3,59.5,96,76,49,30.23,30.13,9,4,17,0.00
2014-7-13,80.4,74.3,69.8,72.3,69.8,66.4,92,86,75,30.14,29.90,10,5,23,0.00
2014-7-14,86.8,76.1,70.5,75.7,71.9,69.4,98,88,66,29.96,29.83,7,3,21,1.03
2014-7-15,85.9,74.4,69.9,76.8,72.2,69.3,98,93,73,29.83,29.73,8,3,21,1.12
2014-7-16,85.5,75.4,69.2,71.4,63.6,54.6,99,70,38,29.88,29.75,6,2,13,0.00
2014-7-17,81.8,74.8,68.1,61.8,57.9,53.9,70,56,45,30.09,29.87,7,3,13,0.00
2014-7-18,85.0,74.9,65.6,60.1,55.2,46.3,79,53,29,30.23,30.10,6,2,13,0.00
2014-7-19,78.0,73.0,68.9,65.5,59.3,54.6,79,62,51,30.25,30.17,5,2,11,0.00
2014-7-20,78.0,71.5,66.7,65.7,62.7,58.5,85,74,54,30.18,30.10,7,4,16,0.00
2014-7-21,86.0,74.0,64.3,67.8,64.1,60.8,93,73,44,30.19,30.12,7,2,14,0.00
2014-7-22,87.5,78.2,70.5,71.0,66.6,61.4,75,68,56,30.18,30.05,9,4,17,0.00
2014-7-23,88.5,79.7,72.3,75.9,70.6,63.8,90,74,66,30.05,29.76,8,4,17,0.06
2014-7-24,83.0,76.9,73.3,73.3,63.6,55.3,89,65,41,29.90,29.78,7,4,16,0.00
2014-7-25,86.5,75.3,66.8,64.0,56.9,53.3,68,54,34,30.03,29.90,7,4,15,0.00
2014-7-26,82.3,74.8,69.3,70.0,64.1,57.9,89,70,45,30.00,29.89,8,4,16,0.00
2014-7-27,87.3,78.0,70.4,74.5,71.0,67.8,93,80,60,29.90,29.64,8,4,14,0.00
2014-7-28,84.6,76.0,68.6,73.5,66.3,59.2,96,74,47,29.68,29.51,10,5,24,0.44
2014-7-29,78.6,71.1,64.4,59.4,54.7,50.1,74,58,38,29.97,29.68,6,3,18,0.00
2014-7-30,82.0,72.8,64.4,61.5,55.1,46.3,76,56,31,30.04,29.95,7,2,15,0.00
2014-7-31,82.1,74.0,66.3,68.4,62.6,57.6,83,68,49,30.14,30.04,8,4,20,0.00
2014-8-1,84.5,75.3,71.0,71.4,68.3,64.4,88,79,59,30.21,30.14,8,3,17,0.00
2014-8-2,72.8,69.2,64.0,67.9,64.1,61.5,93,84,74,30.19,30.10,9,4,18,0.43
2014-8-3,79.7,69.9,65.5,67.5,64.9,62.3,95,85,62,30.12,30.02,5,2,10,0.10
2014-8-4,83.3,76.0,69.7,71.6,68.6,66.2,92,79,61,30.07,30.01,8,3,16,0.00
2014-8-5,89.8,78.9,68.8,69.5,67.1,63.3,90,69,44,30.03,29.90,7,2,14,0.00
2014-8-6,88.2,77.3,71.3,67.1,62.9,58.1,82,63,40,29.91,29.82,8,2,19,0.00
2014-8-7,86.0,75.9,66.6,60.3,55.3,50.3,69,50,32,30.01,29.88,6,3,14,0.00
2014-8-8,85.0,75.3,65.4,62.2,55.3,50.9,71,51,33,30.09,30.01,5,2,13,0.00
2014-8-9,88.3,77.6,68.6,62.0,57.6,48.2,74,53,27,30.12,30.05,6,2,15,0.00
2014-8-10,89.9,78.1,69.6,64.3,60.2,53.6,78,56,30,30.14,30.07,7,2,12,0.00
2014-8-11,85.5,77.0,67.9,68.7,62.8,52.8,85,63,34,30.14,30.09,7,3,15,0.00
2014-8-12,79.0,74.2,70.2,71.3,68.3,65.6,93,82,68,30.09,29.86,9,5,21,0.13
2014-8-13,85.3,73.8,67.8,71.2,67.8,61.4,99,83,56,29.86,29.64,11,4,27,1.17
2014-8-14,79.5,71.8,64.1,62.2,54.8,50.1,72,56,38,29.89,29.77,9,4,16,0.00
2014-8-15,76.0,68.6,62.0,58.7,51.3,47.1,68,54,44,29.94,29.88,6,3,14,0.00
2014-8-16,78.7,71.2,63.7,64.2,56.6,51.3,77,61,42,30.01,29.90,9,3,20,0.00
2014-8-17,83.5,74.7,68.1,65.1,59.2,54.9,78,59,42,29.91,29.80,6,3,12,0.00
2014-8-18,83.8,73.1,63.2,65.9,57.6,54.0,83,60,39,29.93,29.81,5,2,15,0.00
2014-8-19,81.0,72.7,66.1,67.5,63.5,59.3,88,73,59,29.94,29.85,6,3,15,0.00
2014-8-20,82.0,74.6,68.6,67.2,63.8,57.6,92,71,46,30.02,29.93,6,2,12,0.00
2014-8-21,80.3,74.0,67.7,68.3,64.4,58.6,92,73,54,30.06,30.00,7,3,16,0.14
2014-8-22,76.8,70.2,66.5,66.8,64.1,61.0,96,82,63,30.05,29.99,6,2,12,0.21
2014-8-23,73.3,69.1,66.1,63.4,61.9,59.1,86,78,65,30.12,30.03,7,3,15,0.00
2014-8-24,80.5,71.0,63.3,63.2,61.1,56.6,92,72,46,30.15,30.10,7,3,17,0.00
2014-8-25,88.3,75.9,61.7,64.6,61.3,57.3,95,64,41,30.17,30.10,6,2,14,0.00
2014-8-26,86.0,76.5,68.3,71.8,67.1,62.6,91,74,54,30.17,30.08,7,3,13,0.00
2014-8-27,89.9,78.7,69.4,69.6,66.5,61.1,85,67,46,30.08,29.86,8,3,14,0.00
2014-8-28,83.8,76.1,67.6,70.6,58.7,49.8,83,56,36,30.04,29.83,6,3,18,0.00
2014-8-29,78.4,69.6,63.6,57.5,54.1,50.6,70,58,41,30.25,30.05,7,4,14,0.00
2014-8-30,76.8,70.9,61.4,67.8,62.2,55.7,87,74,60,30.27,30.15,8,3,17,0.00
2014-8-31,88.8,77.8,72.6,76.2,71.7,66.4,93,82,64,30.16,29.94,9,4,19,0.24
2014-9-1,89.0,80.4,74.8,75.8,73.4,70.8,92,80,57,30.00,29.91,7,4,14,0.00
2014-9-2,93.3,85.8,77.1,75.3,72.9,68.7,91,67,48,29.94,29.79,12,4,25,0.00
2014-9-3,87.3,79.9,72.6,69.4,61.4,54.9,75,55,34,30.10,29.81,7,3,19,0.00
2014-9-4,85.9,77.4,67.1,68.5,62.5,56.5,81,62,38,30.19,30.10,8,3,19,0.00
2014-9-5,85.2,77.9,72.0,75.6,72.0,66.1,93,83,69,30.17,30.01,8,4,16,0.00
2014-9-6,90.9,80.0,69.7,77.3,72.8,65.9,92,80,56,30.01,29.82,10,4,19,0.13
2014-9-7,80.0,72.4,65.8,66.3,58.6,51.6,90,64,44,30.18,29.93,8,3,17,0.00
2014-9-8,75.8,69.9,66.3,63.6,58.3,54.4,84,67,50,30.32,30.18,7,4,17,0.00
2014-9-9,71.7,67.5,64.2,64.8,60.1,54.2,89,77,67,30.28,30.14,8,5,19,0.02
2014-9-10,77.7,68.4,62.1,64.4,61.5,57.5,88,79,58,30.14,30.02,7,4,14,0.00
2014-9-11,83.3,75.2,67.7,71.3,67.5,60.8,89,78,66,30.02,29.81,8,4,16,0.00
2014-9-12,76.0,68.4,62.4,60.1,54.8,51.6,76,63,48,30.18,29.94,7,4,15,0.00
2014-9-13,68.8,63.5,60.7,62.0,57.7,52.2,97,82,69,30.18,30.08,7,4,18,0.30
2014-9-14,72.0,62.1,53.9,53.4,48.9,44.6,86,64,38,30.28,30.15,7,3,14,0.00
2014-9-15,72.5,63.1,54.6,55.0,49.1,43.6,85,62,38,30.25,30.08,7,3,15,0.00
2014-9-16,71.0,62.8,58.3,61.4,57.7,53.3,96,84,62,30.08,29.96,5,1,10,0.47
2014-9-17,74.2,64.5,53.4,55.7,49.8,42.6,93,62,36,30.07,29.95,4,2,10,0.00
2014-9-18,76.8,67.4,57.2,55.7,51.3,45.2,86,59,35,30.10,29.95,8,2,17,0.00
2014-9-19,66.2,60.2,55.3,52.8,49.0,43.0,82,67,53,30.38,30.10,10,5,19,0.00
2014-9-20,73.3,65.8,56.2,65.9,58.6,50.1,92,78,65,30.35,30.06,9,4,20,0.00
2014-9-21,76.8,71.2,66.9,70.7,68.0,64.6,98,90,80,30.05,29.60,4,1,9,0.13
2014-9-22,71.8,66.1,55.7,68.0,52.7,41.4,92,63,45,30.17,29.61,7,4,18,0.00
2014-9-23,74.0,61.0,51.4,55.9,46.4,40.8,85,60,37,30.41,30.17,4,2,11,0.00
2014-9-24,70.6,63.5,55.4,59.4,55.4,49.7,92,76,51,30.56,30.41,7,3,16,0.00
2014-9-25,63.0,61.2,58.3,58.7,56.5,53.3,92,85,72,30.47,30.21,10,7,23,0.29
2014-9-26,78.5,66.7,59.2,56.6,54.1,45.7,85,66,38,30.22,30.15,8,4,18,0.00
2014-9-27,84.7,71.5,59.1,61.4,58.5,56.0,91,66,40,30.23,30.15,6,2,13,0.00
2014-9-28,82.3,71.3,59.4,65.8,62.3,58.2,97,75,49,30.17,30.00,6,2,12,0.00
2014-9-29,79.6,71.7,65.2,65.5,62.4,57.2,88,74,47,30.00,29.89,5,1,11,0.00
2014-9-30,71.1,66.6,62.0,63.5,60.1,51.6,94,80,51,29.99,29.91,6,2,12,0.04
2014-10-1,63.9,61.9,60.0,60.5,59.2,57.6,96,91,85,30.08,29.98,7,4,16,0.02
2014-10-2,67.5,62.3,59.2,58.5,56.9,56.0,95,83,69,30.15,30.07,7,4,15,0.01
2014-10-3,69.3,62.3,56.3,57.9,54.5,50.5,87,76,59,30.12,29.85,6,3,15,0.00
2014-10-4,70.0,63.7,53.4,67.5,57.9,39.2,98,83,57,29.85,29.50,10,5,21,1.24
2014-10-5,61.2,52.7,45.9,40.6,37.6,34.5,77,57,43,30.00,29.69,7,4,17,0.00
2014-10-6,68.1,58.6,43.0,55.9,48.1,40.1,93,70,44,30.09,30.00,12,5,22,0.00
2014-10-7,71.5,66.8,63.7,63.0,58.0,51.7,90,74,52,30.07,29.92,10,6,19,0.01
2014-10-8,73.5,67.3,62.8,63.6,53.7,42.8,93,64,41,29.94,29.79,12,6,28,0.05
2014-10-9,68.9,62.8,56.5,43.5,41.4,38.6,60,46,35,30.06,29.94,11,4,24,0.00
2014-10-10,64.5,59.1,52.5,43.4,40.6,38.3,64,51,40,30.14,30.04,5,2,13,0.00
2014-10-11,58.9,53.7,48.9,52.6,49.3,46.3,96,85,63,30.18,30.03,7,3,15,0.46
2014-10-12,63.7,54.3,48.6,48.3,43.1,35.4,92,68,38,30.34,30.17,7,2,14,0.00
2014-10-13,64.0,58.0,47.2,62.1,53.3,44.3,98,85,69,30.35,30.24,6,2,13,0.06
2014-10-14,74.0,67.9,62.5,66.5,64.4,61.9,99,89,75,30.24,30.11,11,5,20,0.00
2014-10-15,74.6,70.5,67.1,69.1,67.5,65.0,96,90,82,30.11,29.84,10,6,21,0.04
2014-10-16,70.3,67.0,61.0,68.5,64.1,56.8,99,91,70,29.84,29.68,9,4,18,0.77
2014-10-17,72.2,64.7,59.5,57.9,55.4,52.1,90,73,50,29.75,29.67,8,4,17,0.00
2014-10-18,70.3,62.7,56.3,57.8,52.6,44.6,92,71,50,29.72,29.57,6,3,18,0.00
2014-10-19,56.2,51.6,44.1,45.8,36.5,28.8,69,57,39,30.07,29.71,8,5,25,0.00
2014-10-20,61.1,50.8,41.3,48.0,37.2,29.5,74,60,46,30.14,29.97,7,3,17,0.00
2014-10-21,67.3,59.0,51.2,58.3,51.8,46.3,90,78,57,29.98,29.83,6,2,12,0.00
2014-10-22,58.1,54.5,49.7,55.6,52.0,48.3,96,91,78,29.93,29.72,12,7,26,1.48
2014-10-23,52.9,51.2,49.8,49.2,48.5,47.1,94,90,85,29.78,29.69,11,6,29,0.35
2014-10-24,63.2,54.9,50.3,49.1,46.7,42.1,88,74,57,29.84,29.76,6,3,16,0.00
2014-10-25,67.8,59.2,50.2,49.1,43.8,38.6,70,57,45,29.88,29.57,9,4,18,0.00
2014-10-26,62.7,58.3,53.7,50.5,41.5,36.9,70,54,41,29.84,29.55,7,4,20,0.00
2014-10-27,64.8,56.2,49.8,44.6,40.3,38.3,75,56,39,30.04,29.83,5,3,15,0.00
2014-10-28,74.1,59.4,48.0,58.4,51.2,42.8,95,75,48,30.06,29.91,6,2,13,0.00
2014-10-29,72.3,61.1,53.2,60.7,54.2,42.8,97,80,44,29.95,29.83,6,2,15,0.02
2014-10-30,59.4,51.8,45.4,48.0,41.8,36.4,97,71,48,30.02,29.93,5,2,14,0.00
2014-10-31,53.7,49.6,44.7,47.3,40.5,34.7,93,71,62,30.03,29.86,10,5,21,0.03
2014-11-1,48.5,45.2,42.2,46.6,40.8,38.4,93,84,78,29.87,29.76,12,8,25,0.37
2014-11-2,48.9,43.5,40.3,39.0,29.4,19.5,89,59,38,30.06,29.75,13,8,28,0.01
2014-11-3,62.0,50.6,39.7,32.0,27.4,21.8,66,43,22,30.15,30.06,8,4,18,0.00
2014-11-4,69.5,60.4,53.1,47.4,32.9,25.1,61,36,23,30.18,30.02,7,3,15,0.00
2014-11-5,64.1,59.1,55.4,46.4,41.2,33.2,66,52,35,30.15,30.01,7,3,18,0.00
2014-11-6,55.8,50.4,47.9,51.5,47.3,39.0,97,90,54,30.13,29.58,4,2,10,0.42
2014-11-7,53.4,47.1,39.5,47.3,37.4,27.9,92,70,53,29.95,29.57,8,4,18,0.00
2014-11-8,47.9,42.7,36.1,36.0,29.2,25.1,72,59,47,30.06,29.93,8,4,18,0.00
2014-11-9,56.7,49.9,43.3,39.1,37.2,34.9,75,62,45,30.02,29.91,7,2,14,0.00
2014-11-10,61.5,49.9,37.6,46.8,39.5,34.6,93,70,39,30.19,30.02,6,2,12,0.00
2014-11-11,63.4,55.2,44.2,58.2,52.5,43.1,98,91,78,30.16,29.91,7,2,14,0.00
2014-11-12,65.3,57.4,46.1,60.5,51.8,37.1,99,83,55,30.08,29.87,6,2,15,0.00
2014-11-13,49.4,43.3,36.8,37.0,33.0,29.2,94,68,51,30.13,29.99,6,2,13,0.18
2014-11-14,43.1,38.5,35.3,35.5,25.4,16.9,94,62,36,30.19,29.95,7,4,21,0.05
2014-11-15,42.8,37.1,32.9,24.2,21.2,18.1,66,53,38,30.38,30.19,5,2,14,0.00
2014-11-16,43.8,39.5,30.3,35.6,27.6,22.2,80,63,51,30.40,30.12,7,3,14,0.01
2014-11-17,51.9,44.5,38.8,51.3,42.6,35.7,99,93,76,30.12,29.51,8,2,22,1.52
2014-11-18,44.7,30.8,23.6,37.9,12.8,4.3,79,48,32,30.12,29.59,11,8,29,0.00
2014-11-19,34.4,27.6,21.6,19.7,10.5,5.6,57,48,35,30.29,30.08,10,6,24,0.00
2014-11-20,45.7,38.5,30.6,27.6,20.8,10.7,58,49,36,30.08,29.85,11,6,23,0.00
2014-11-21,37.2,31.2,27.1,14.9,12.4,9.9,59,46,35,30.51,30.04,9,5,22,0.00
2014-11-22,43.2,36.3,27.7,25.5,18.5,12.9,66,49,36,30.51,30.21,10,5,20,0.00
2014-11-23,56.3,48.2,43.0,52.3,33.3,24.8,94,58,35,30.23,29.99,8,4,18,0.00
2014-11-24,66.5,60.9,54.4,61.6,58.1,52.2,98,91,79,29.99,29.58,14,7,33,0.49
2014-11-25,66.8,56.9,50.5,59.7,40.1,29.3,83,55,37,30.18,29.73,10,4,19,0.00
2014-11-26,50.8,39.5,33.3,37.5,33.5,30.5,97,82,46,30.21,29.75,12,6,25,1.17
2014-11-27,37.7,36.3,34.1,34.9,32.0,27.0,94,85,73,30.07,29.84,9,3,17,0.02
2014-11-28,37.9,33.5,31.0,27.2,23.4,16.3,78,67,49,30.20,30.06,9,5,19,0.00
2014-11-29,43.7,33.3,26.2,36.2,20.5,14.6,76,59,48,30.38,30.23,6,2,12,0.00
2014-11-30,53.7,49.0,43.7,43.9,37.9,33.9,77,66,53,30.23,30.08,8,4,16,0.00
2014-12-1,64.1,53.3,41.4,51.0,44.1,29.6,85,71,61,30.46,30.07,9,5,19,0.08
2014-12-2,42.3,38.5,34.4,41.5,30.8,20.6,97,75,51,30.64,30.29,10,6,20,0.17
2014-12-3,46.6,43.6,40.7,45.0,40.6,28.3,99,90,60,30.29,29.97,8,5,21,0.14
2014-12-4,46.1,40.3,37.0,28.9,25.4,21.0,69,56,44,30.53,30.21,8,4,19,0.00
2014-12-5,46.2,39.9,34.0,45.4,34.2,24.3,98,80,61,30.60,30.35,7,4,15,0.55
2014-12-6,49.6,45.0,39.4,48.8,44.2,37.8,98,97,92,30.35,30.09,13,3,25,1.50
2014-12-7,41.6,36.8,29.7,37.7,21.5,0.3,94,57,27,30.62,30.19,16,10,31,0.03
2014-12-8,35.9,29.4,25.0,32.7,20.4,0.3,88,71,28,30.69,30.35,11,8,22,0.00
2014-12-9,42.9,39.6,35.5,42.5,38.1,32.4,99,94,86,30.35,29.63,15,9,33,2.75
2014-12-10,40.5,36.3,31.4,38.9,33.8,26.5,97,91,74,29.68,29.59,8,5,18,0.03
2014-12-11,36.6,33.8,30.2,29.5,26.8,23.7,91,76,60,29.88,29.61,10,6,22,0.00
2014-12-12,38.1,34.3,31.5,26.7,24.7,22.5,74,68,61,30.00,29.88,8,5,19,0.00
2014-12-13,44.4,37.8,33.9,31.5,28.8,26.1,79,70,52,30.00,29.89,9,5,22,0.00
2014-12-14,45.9,40.7,37.2,34.6,32.9,31.5,81,74,63,29.98,29.87,7,4,18,0.00
2014-12-15,49.9,41.0,36.0,37.3,33.6,30.9,93,75,56,30.13,29.98,4,2,12,0.00
2014-12-16,49.0,42.7,34.8,46.0,40.1,33.5,98,91,78,30.12,29.83,5,1,12,0.23
2014-12-17,53.9,46.8,41.3,44.5,40.6,29.9,99,80,63,29.90,29.80,9,4,22,0.04
2014-12-18,42.6,39.3,37.2,30.3,27.8,25.1,73,63,56,30.00,29.88,9,5,21,0.00
2014-12-19,38.8,35.4,31.6,29.0,24.8,22.4,73,65,55,30.20,29.97,9,5,19,0.00
2014-12-20,33.2,31.8,30.4,24.9,23.3,22.1,74,70,66,30.32,30.19,7,3,13,0.00
2014-12-21,36.1,34.0,32.0,32.0,28.5,24.7,89,80,73,30.35,30.28,6,3,12,0.00
2014-12-22,45.6,39.9,34.9,44.5,37.5,31.4,97,91,87,30.34,30.16,8,4,15,0.04
2014-12-23,46.1,45.0,44.1,45.5,44.4,43.2,99,98,95,30.17,30.07,7,4,16,0.20
2014-12-24,54.6,47.7,44.1,54.6,47.5,43.8,100,99,99,30.09,29.53,8,3,16,0.76
2014-12-25,60.6,52.7,49.1,60.5,47.4,32.3,100,84,48,29.76,29.48,10,5,24,0.12
2014-12-26,50.6,44.0,38.8,34.0,32.6,31.3,76,65,49,30.26,30.13,6,3,13,0.00
2014-12-27,56.0,46.8,41.3,40.9,36.4,33.1,86,68,51,30.28,30.08,5,2,12,0.00
2014-12-28,52.8,47.2,41.9,45.8,40.5,31.0,92,77,65,30.08,29.87,7,3,16,0.11
2014-12-29,44.6,39.4,34.2,31.0,24.1,19.6,65,55,38,30.27,30.07,8,4,20,0.00
2014-12-30,34.2,30.8,27.9,22.5,17.0,12.1,68,56,48,30.42,30.26,7,4,16,0.00
2014-12-31,32.9,29.2,26.7,17.3,13.1,9.7,64,51,40,30.38,30.19,7,4,16,0.00
2015-1-1,38.8,32.7,26.5,22.4,14.9,8.9,60,48,36,30.21,29.99,10,7,24,0.00
2015-1-2,42.4,38.2,35.1,24.1,21.7,20.5,64,51,42,30.47,30.02,9,5,20,0.00